Time;durP1;ratioP1;P1;durP2;ratioP2;P2;SDS_P1;SDS_P2;PMS_P1;PMS_P2;Temp;Humidity;BMP_temperature;BMP_pressure;BME280_temperature;BME280_humidity;BME280_pressure;Samples;Min_cycle;Max_cycle;Signal;HPM_P1;HPM_P2
2021/01/03 00:00:59;;;;;;;3.90;2.33;;;;;;;;;;5052850;28;20028;-59
2021/01/03 00:03:26;;;;;;;5.20;2.00;;;;;;;;;;5053002;28;20029;-59
2021/01/03 00:05:53;;;;;;;6.53;3.43;;;;;;;;;;5052231;28;20448;-58
2021/01/03 00:08:20;;;;;;;6.00;2.93;;;;;;;;;;5052659;28;20025;-59
2021/01/03 00:10:47;;;;;;;8.37;3.40;;;;;;;;;;5052803;28;20025;-59
2021/01/03 00:13:13;;;;;;;8.17;3.60;;;;;;;;;;5052739;28;20150;-59
2021/01/03 00:15:40;;;;;;;6.37;3.40;;;;;;;;;;5052622;28;20029;-59
2021/01/03 00:18:07;;;;;;;13.93;4.20;;;;;;;;;;5052679;28;20384;-58
2021/01/03 00:20:34;;;;;;;5.77;3.03;;;;;;;;;;5052634;28;20489;-59
2021/01/03 00:23:01;;;;;;;9.10;4.13;;;;;;;;;;5052675;28;20060;-58
2021/01/03 00:25:28;;;;;;;6.67;3.20;;;;;;;;;;5052687;28;20036;-59
2021/01/03 00:27:55;;;;;;;8.70;3.47;;;;;;;;;;5052616;28;20060;-59
2021/01/03 00:30:23;;;;;;;7.07;3.43;;;;;;;;;;5052806;28;20033;-58
2021/01/03 00:32:50;;;;;;;4.97;3.30;;;;;;;;;;5052483;28;20041;-58
2021/01/03 00:35:20;;;;;;;6.73;3.53;;;;;;;;;;5052294;28;20060;-59
2021/01/03 00:37:48;;;;;;;10.97;4.00;;;;;;;;;;5052472;28;20036;-58
2021/01/03 00:40:18;;;;;;;5.27;3.43;;;;;;;;;;5052497;28;20029;-58
2021/01/03 00:42:45;;;;;;;7.73;4.30;;;;;;;;;;5052588;28;20100;-59
2021/01/03 00:45:12;;;;;;;11.43;5.07;;;;;;;;;;5052338;28;20029;-58
2021/01/03 00:47:38;;;;;;;7.67;4.30;;;;;;;;;;5052400;28;20048;-58
2021/01/03 00:50:06;;;;;;;7.13;4.20;;;;;;;;;;5052357;28;20116;-58
2021/01/03 00:52:33;;;;;;;11.93;4.83;;;;;;;;;;5052284;28;20035;-59
2021/01/03 00:55:00;;;;;;;8.80;5.37;;;;;;;;;;5052564;28;20029;-59
2021/01/03 00:57:27;;;;;;;6.50;3.73;;;;;;;;;;5052432;28;20029;-59
2021/01/03 00:59:54;;;;;;;8.60;3.93;;;;;;;;;;5052346;28;20191;-59
2021/01/03 01:02:20;;;;;;;6.63;3.83;;;;;;;;;;5052320;28;20100;-59
2021/01/03 01:04:47;;;;;;;7.43;3.67;;;;;;;;;;5052190;28;20418;-58
2021/01/03 01:07:14;;;;;;;7.77;3.10;;;;;;;;;;5052216;28;20021;-58
2021/01/03 01:09:41;;;;;;;5.13;3.30;;;;;;;;;;5052334;28;20041;-59
2021/01/03 01:12:08;;;;;;;5.37;3.40;;;;;;;;;;5052219;28;20123;-58
2021/01/03 01:14:35;;;;;;;6.47;3.00;;;;;;;;;;5052025;28;20125;-58
2021/01/03 01:17:01;;;;;;;8.17;2.80;;;;;;;;;;5052081;28;20365;-58
2021/01/03 01:19:28;;;;;;;6.60;2.80;;;;;;;;;;5054880;28;20029;-59
2021/01/03 01:21:55;;;;;;;5.07;2.73;;;;;;;;;;5055849;28;20099;-59
2021/01/03 01:24:22;;;;;;;6.13;2.73;;;;;;;;;;5055658;28;20024;-58
2021/01/03 01:26:49;;;;;;;4.47;2.80;;;;;;;;;;5055741;28;20025;-58
2021/01/03 01:29:15;;;;;;;5.03;3.30;;;;;;;;;;5055836;28;20024;-58
2021/01/03 01:31:42;;;;;;;6.50;3.13;;;;;;;;;;5055612;28;20021;-58
2021/01/03 01:34:09;;;;;;;4.83;2.87;;;;;;;;;;5055482;28;20048;-58
2021/01/03 01:36:36;;;;;;;5.33;3.20;;;;;;;;;;5055087;28;20043;-59
2021/01/03 01:39:03;;;;;;;4.43;2.70;;;;;;;;;;5055507;28;20032;-59
2021/01/03 01:41:29;;;;;;;5.67;2.40;;;;;;;;;;5055569;28;20017;-59
2021/01/03 01:43:56;;;;;;;5.30;2.50;;;;;;;;;;5055454;28;20480;-58
2021/01/03 01:46:35;;;;;;;12.10;3.00;;;;;;;;;;5055375;28;20052;-59
2021/01/03 01:49:04;;;;;;;4.10;2.47;;;;;;;;;;5055318;28;20029;-59
2021/01/03 01:51:38;;;;;;;4.50;2.60;;;;;;;;;;5055247;28;20013;-59
2021/01/03 01:54:08;;;;;;;3.70;2.47;;;;;;;;;;5055204;28;20063;-59
2021/01/03 01:56:51;;;;;;;4.10;2.20;;;;;;;;;;5055162;28;20025;-58
2021/01/03 01:59:27;;;;;;;9.83;3.10;;;;;;;;;;5055105;28;20090;-58
2021/01/03 02:02:07;;;;;;;4.13;2.70;;;;;;;;;;5054953;28;20032;-58
2021/01/03 02:04:39;;;;;;;5.30;2.93;;;;;;;;;;5055043;28;20073;-58
2021/01/03 02:07:28;;;;;;;4.23;2.70;;;;;;;;;;5053725;28;20032;-57
2021/01/03 02:10:13;;;;;;;5.20;2.60;;;;;;;;;;5037861;28;20029;-57
2021/01/03 02:12:43;;;;;;;8.85;2.63;;;;;;;;;;5054548;28;20021;-57
2021/01/03 02:15:12;;;;;;;6.23;2.70;;;;;;;;;;5054238;28;20037;-58
2021/01/03 02:17:39;;;;;;;6.77;2.43;;;;;;;;;;5054675;28;20023;-56
2021/01/03 02:20:07;;;;;;;5.13;2.90;;;;;;;;;;5054514;28;20025;-57
2021/01/03 02:22:40;;;;;;;5.03;2.37;;;;;;;;;;5054475;28;20045;-57
2021/01/03 02:25:12;;;;;;;7.70;3.47;;;;;;;;;;5054349;28;20491;-57
2021/01/03 02:27:48;;;;;;;4.83;2.47;;;;;;;;;;5054440;28;20025;-57
2021/01/03 02:30:17;;;;;;;6.90;3.27;;;;;;;;;;5036217;28;20498;-57
2021/01/03 02:32:44;;;;;;;7.03;2.50;;;;;;;;;;5054371;28;20108;-57
2021/01/03 02:35:11;;;;;;;4.97;2.63;;;;;;;;;;5054083;28;20032;-58
2021/01/03 02:37:41;;;;;;;10.27;4.27;;;;;;;;;;5054151;28;20033;-58
2021/01/03 02:40:22;;;;;;;7.27;2.43;;;;;;;;;;5054194;28;20055;-57
2021/01/03 02:42:49;;;;;;;5.80;2.23;;;;;;;;;;5054312;28;20024;-57
2021/01/03 02:45:18;;;;;;;3.93;2.20;;;;;;;;;;5054125;28;20033;-57
2021/01/03 02:47:45;;;;;;;7.43;2.00;;;;;;;;;;5054180;28;20024;-57
2021/01/03 02:50:15;;;;;;;4.80;1.77;;;;;;;;;;5054070;28;20025;-57
2021/01/03 02:52:43;;;;;;;5.93;2.40;;;;;;;;;;5054054;28;20032;-57
2021/01/03 02:55:10;;;;;;;9.60;2.33;;;;;;;;;;5036132;28;20495;-57
2021/01/03 02:57:37;;;;;;;4.37;2.20;;;;;;;;;;5053837;28;20017;-57
2021/01/03 03:00:05;;;;;;;6.73;2.33;;;;;;;;;;5035988;28;20021;-57
2021/01/03 03:02:32;;;;;;;6.87;2.13;;;;;;;;;;5053915;28;20017;-57
2021/01/03 03:04:59;;;;;;;3.57;2.03;;;;;;;;;;5053784;28;20074;-57
2021/01/03 03:07:25;;;;;;;5.93;1.97;;;;;;;;;;5053738;28;20029;-57
2021/01/03 03:09:52;;;;;;;5.23;2.30;;;;;;;;;;5053689;28;20032;-57
2021/01/03 03:12:19;;;;;;;5.20;2.37;;;;;;;;;;5053696;28;20060;-57
2021/01/03 03:14:46;;;;;;;4.77;2.00;;;;;;;;;;5053458;28;20087;-57
2021/01/03 03:17:13;;;;;;;3.40;2.10;;;;;;;;;;5053679;28;20032;-57
2021/01/03 03:19:40;;;;;;;6.43;2.93;;;;;;;;;;5052873;28;20107;-57
2021/01/03 03:22:06;;;;;;;5.60;2.63;;;;;;;;;;5035596;28;20033;-57
2021/01/03 03:24:33;;;;;;;6.80;3.60;;;;;;;;;;5053423;28;20035;-57
2021/01/03 03:27:01;;;;;;;6.53;2.93;;;;;;;;;;5053243;28;20024;-57
2021/01/03 03:29:28;;;;;;;9.90;3.57;;;;;;;;;;5053255;28;20029;-57
2021/01/03 03:31:55;;;;;;;5.83;3.13;;;;;;;;;;5053219;28;20380;-57
2021/01/03 03:34:22;;;;;;;7.20;3.07;;;;;;;;;;5053160;28;20112;-57
2021/01/03 03:36:52;;;;;;;6.30;2.57;;;;;;;;;;5052757;28;20086;-57
2021/01/03 03:39:19;;;;;;;4.67;2.47;;;;;;;;;;5053236;28;20412;-57
2021/01/03 03:41:45;;;;;;;4.87;2.30;;;;;;;;;;5052311;28;20166;-57
2021/01/03 03:44:12;;;;;;;3.97;1.90;;;;;;;;;;5053026;28;20056;-57
2021/01/03 03:46:39;;;;;;;6.47;2.57;;;;;;;;;;5053018;28;20021;-57
2021/01/03 03:49:06;;;;;;;6.17;3.10;;;;;;;;;;5052943;28;20063;-57
2021/01/03 03:51:33;;;;;;;4.57;2.53;;;;;;;;;;5035164;28;20029;-57
2021/01/03 03:53:59;;;;;;;5.97;2.47;;;;;;;;;;5051685;28;20037;-57
2021/01/03 03:56:26;;;;;;;5.40;2.77;;;;;;;;;;5052899;28;20027;-57
2021/01/03 03:58:53;;;;;;;7.37;2.60;;;;;;;;;;5035013;28;20028;-57
2021/01/03 04:01:20;;;;;;;6.87;2.33;;;;;;;;;;5034887;28;20392;-57
2021/01/03 04:03:54;;;;;;;4.63;2.13;;;;;;;;;;5052630;28;20029;-57
2021/01/03 04:06:26;;;;;;;5.43;2.40;;;;;;;;;;5052554;28;20021;-57
2021/01/03 04:08:53;;;;;;;4.60;2.37;;;;;;;;;;5034769;28;20025;-57
2021/01/03 04:11:20;;;;;;;6.23;2.57;;;;;;;;;;5052623;28;20104;-57
2021/01/03 04:13:46;;;;;;;5.20;2.30;;;;;;;;;;5052424;28;20391;-57
2021/01/03 04:16:13;;;;;;;3.73;2.40;;;;;;;;;;5052598;28;20379;-57
2021/01/03 04:18:40;;;;;;;5.03;2.30;;;;;;;;;;5052595;28;20033;-57
2021/01/03 04:21:07;;;;;;;4.60;2.40;;;;;;;;;;5052627;28;20492;-57
2021/01/03 04:23:34;;;;;;;6.80;2.60;;;;;;;;;;5034693;28;20029;-57
2021/01/03 04:26:01;;;;;;;6.13;2.30;;;;;;;;;;5052651;28;20459;-57
2021/01/03 04:28:27;;;;;;;5.63;2.40;;;;;;;;;;5052378;28;20095;-57
2021/01/03 04:30:54;;;;;;;4.13;2.47;;;;;;;;;;5052812;28;20044;-57
2021/01/03 04:33:21;;;;;;;6.90;3.20;;;;;;;;;;5034448;28;20041;-57
2021/01/03 04:35:51;;;;;;;4.97;2.57;;;;;;;;;;5033744;28;20048;-57
2021/01/03 04:38:18;;;;;;;4.60;2.47;;;;;;;;;;5052294;28;20029;-57
2021/01/03 04:40:46;;;;;;;7.53;2.53;;;;;;;;;;5052429;28;20070;-57
2021/01/03 04:43:15;;;;;;;7.97;2.87;;;;;;;;;;5052341;28;20104;-57
2021/01/03 04:45:43;;;;;;;3.03;1.80;;;;;;;;;;5052349;28;20510;-57
2021/01/03 04:48:20;;;;;;;3.17;1.60;;;;;;;;;;5052304;28;20053;-57
2021/01/03 04:50:47;;;;;;;2.47;1.03;;;;;;;;;;5052255;28;20025;-57
2021/01/03 04:53:27;;;;;;;2.40;1.10;;;;;;;;;;5036793;28;20055;-57
2021/01/03 04:56:01;;;;;;;2.83;1.07;;;;;;;;;;5056192;28;20121;-57
2021/01/03 04:58:35;;;;;;;2.70;0.90;;;;;;;;;;5056307;28;20037;-56
2021/01/03 05:01:20;;;;;;;1.05;0.75;;;;;;;;;;5056067;28;20027;-56
2021/01/03 05:03:59;;;;;;;1.95;0.75;;;;;;;;;;5056200;28;20071;-56
2021/01/03 05:06:26;;;;;;;3.03;1.00;;;;;;;;;;5055999;28;20025;-57
2021/01/03 05:08:58;;;;;;;2.10;0.70;;;;;;;;;;5055927;28;20155;-57
2021/01/03 05:11:40;;;;;;;0.97;0.60;;;;;;;;;;5055892;28;20021;-56
2021/01/03 05:14:12;;;;;;;0.40;0.40;;;;;;;;;;5055769;28;20063;-57
2021/01/03 05:16:39;;;;;;;2.00;0.70;;;;;;;;;;5055799;28;20075;-56
2021/01/03 05:19:06;;;;;;;0.90;0.70;;;;;;;;;;5055784;28;20035;-56
2021/01/03 05:21:48;;;;;;;1.27;0.70;;;;;;;;;;5055753;28;20025;-57
2021/01/03 05:24:15;;;;;;;0.73;0.57;;;;;;;;;;5055747;28;20029;-57
2021/01/03 05:26:42;;;;;;;3.03;0.70;;;;;;;;;;5055834;28;20100;-57
2021/01/03 05:29:10;;;;;;;1.10;0.73;;;;;;;;;;5055673;28;20029;-56
2021/01/03 05:31:38;;;;;;;1.67;0.90;;;;;;;;;;5055712;28;20045;-56
2021/01/03 05:34:07;;;;;;;1.33;0.63;;;;;;;;;;5055586;28;20041;-56
2021/01/03 05:36:34;;;;;;;0.70;0.40;;;;;;;;;;5055034;28;20057;-57
2021/01/03 05:39:03;;;;;;;0.70;0.60;;;;;;;;;;5055422;28;20432;-57
2021/01/03 05:41:45;;;;;;;1.60;0.70;;;;;;;;;;5055301;28;20025;-56
2021/01/03 05:44:21;;;;;;;3.43;0.60;;;;;;;;;;5055307;28;20028;-56
2021/01/03 05:46:49;;;;;;;1.67;0.67;;;;;;;;;;5055255;28;20491;-56
2021/01/03 05:49:23;;;;;;;1.10;0.50;;;;;;;;;;5055359;28;20055;-56
2021/01/03 05:51:55;;;;;;;1.10;0.57;;;;;;;;;;5055099;28;20029;-56
2021/01/03 05:54:23;;;;;;;1.90;0.50;;;;;;;;;;5055006;28;20037;-56
2021/01/03 05:56:50;;;;;;;8.83;0.83;;;;;;;;;;5054969;28;20029;-57
2021/01/03 05:59:31;;;;;;;1.43;0.53;;;;;;;;;;5054989;28;20103;-56
2021/01/03 06:02:11;;;;;;;1.93;0.97;;;;;;;;;;5054983;28;20422;-57
2021/01/03 06:04:39;;;;;;;1.50;0.80;;;;;;;;;;5054076;28;20108;-57
2021/01/03 06:07:08;;;;;;;1.00;0.63;;;;;;;;;;5054785;28;20103;-56
2021/01/03 06:09:39;;;;;;;3.80;0.90;;;;;;;;;;5054800;28;20369;-57
2021/01/03 06:12:17;;;;;;;2.20;0.67;;;;;;;;;;5054750;28;20029;-57
2021/01/03 06:14:45;;;;;;;1.00;0.60;;;;;;;;;;5054954;28;20041;-57
2021/01/03 06:17:15;;;;;;;1.17;0.70;;;;;;;;;;5054695;28;20440;-58
2021/01/03 06:19:49;;;;;;;1.43;0.80;;;;;;;;;;5054634;28;20029;-58
2021/01/03 06:22:31;;;;;;;1.17;0.50;;;;;;;;;;5054370;28;20407;-58
2021/01/03 06:24:58;;;;;;;2.03;1.00;;;;;;;;;;5054544;28;20032;-58
2021/01/03 06:27:30;;;;;;;1.90;0.90;;;;;;;;;;5054399;28;20029;-58
2021/01/03 06:30:04;;;;;;;5.40;1.10;;;;;;;;;;5054987;28;20044;-58
2021/01/03 06:32:42;;;;;;;2.53;1.10;;;;;;;;;;5054500;28;20150;-58
2021/01/03 06:35:09;;;;;;;1.43;0.90;;;;;;;;;;5054456;28;20108;-58
2021/01/03 06:37:42;;;;;;;1.30;0.60;;;;;;;;;;5053731;28;20045;-58
2021/01/03 06:40:27;;;;;;;1.73;0.77;;;;;;;;;;5054398;28;20036;-58
2021/01/03 06:43:19;;;;;;;2.55;1.00;;;;;;;;;;5054464;28;20029;-58
2021/01/03 06:46:06;;;;;;;2.03;0.93;;;;;;;;;;5051744;28;20378;-58
2021/01/03 06:48:46;;;;;;;3.33;0.97;;;;;;;;;;5054171;28;20021;-58
2021/01/03 06:51:31;;;;;;;3.80;1.30;;;;;;;;;;5054177;28;20376;-58
2021/01/03 06:54:16;;;;;;;2.50;1.20;;;;;;;;;;5054023;28;20460;-58
2021/01/03 06:56:46;;;;;;;3.13;1.48;;;;;;;;;;5054174;28;20379;-58
2021/01/03 06:59:28;;;;;;;6.53;1.30;;;;;;;;;;5054036;28;20031;-58
2021/01/03 07:01:55;;;;;;;1.87;1.07;;;;;;;;;;5053924;28;20025;-58
2021/01/03 07:04:28;;;;;;;1.10;0.70;;;;;;;;;;5054121;28;20025;-58
2021/01/03 07:06:56;;;;;;;3.43;1.10;;;;;;;;;;5053996;28;20100;-58
2021/01/03 07:09:22;;;;;;;2.60;1.33;;;;;;;;;;5053977;28;20025;-58
2021/01/03 07:11:54;;;;;;;4.67;1.90;;;;;;;;;;5053772;28;20052;-58
2021/01/03 07:14:23;;;;;;;3.37;1.63;;;;;;;;;;5053638;28;20047;-58
2021/01/03 07:16:54;;;;;;;3.40;1.90;;;;;;;;;;5052724;28;20063;-58
2021/01/03 07:19:26;;;;;;;3.87;1.50;;;;;;;;;;5053765;28;20021;-58
2021/01/03 07:21:57;;;;;;;10.13;1.70;;;;;;;;;;5053548;28;20025;-58
2021/01/03 07:24:30;;;;;;;3.07;1.60;;;;;;;;;;5053479;28;20029;-58
2021/01/03 07:27:22;;;;;;;4.00;1.90;;;;;;;;;;5053408;28;20080;-58
2021/01/03 07:30:09;;;;;;;4.27;1.70;;;;;;;;;;5053404;28;20029;-58
2021/01/03 07:32:38;;;;;;;2.90;1.70;;;;;;;;;;5053452;28;20423;-58
2021/01/03 07:35:09;;;;;;;5.50;2.00;;;;;;;;;;5053266;28;20072;-58
2021/01/03 07:37:36;;;;;;;4.00;1.27;;;;;;;;;;5052571;28;20076;-58
2021/01/03 07:40:07;;;;;;;4.73;1.47;;;;;;;;;;5053224;28;20480;-58
2021/01/03 07:42:36;;;;;;;2.70;1.50;;;;;;;;;;5053244;28;20021;-58
2021/01/03 07:45:10;;;;;;;4.83;1.90;;;;;;;;;;5053127;28;20021;-58
2021/01/03 07:47:42;;;;;;;3.15;1.83;;;;;;;;;;5053202;28;20385;-58
2021/01/03 07:50:20;;;;;;;7.53;3.43;;;;;;;;;;5053150;28;20056;-58
2021/01/03 07:52:53;;;;;;;4.10;1.90;;;;;;;;;;5035039;28;20962;-58
2021/01/03 07:55:23;;;;;;;3.87;1.83;;;;;;;;;;5052934;28;20029;-58
2021/01/03 07:58:04;;;;;;;4.07;1.67;;;;;;;;;;5052927;28;20025;-58
2021/01/03 08:00:32;;;;;;;3.47;1.83;;;;;;;;;;5053093;28;20029;-58
2021/01/03 08:03:05;;;;;;;4.03;2.00;;;;;;;;;;5052806;28;20033;-58
2021/01/03 08:05:32;;;;;;;6.60;2.13;;;;;;;;;;5052870;28;20048;-58
2021/01/03 08:08:14;;;;;;;3.87;2.10;;;;;;;;;;5052815;28;20025;-58
2021/01/03 08:10:42;;;;;;;4.87;1.90;;;;;;;;;;5052873;28;20379;-58
2021/01/03 08:13:16;;;;;;;3.10;1.50;;;;;;;;;;5052734;28;20033;-58
2021/01/03 08:15:43;;;;;;;4.90;2.23;;;;;;;;;;5052836;28;20471;-57
2021/01/03 08:18:17;;;;;;;4.40;2.20;;;;;;;;;;5052706;28;20530;-58
2021/01/03 08:20:44;;;;;;;3.87;2.20;;;;;;;;;;5052878;28;20033;-58
2021/01/03 08:23:20;;;;;;;3.87;2.03;;;;;;;;;;5052736;28;20325;-58
2021/01/03 08:25:47;;;;;;;4.70;2.10;;;;;;;;;;5052669;28;20056;-58
2021/01/03 08:28:21;;;;;;;4.37;2.03;;;;;;;;;;5052203;28;20108;-58
2021/01/03 08:30:49;;;;;;;3.92;2.00;;;;;;;;;;5052559;28;20017;-58
2021/01/03 08:33:32;;;;;;;4.60;2.07;;;;;;;;;;5052478;28;20029;-58
2021/01/03 08:36:13;;;;;;;8.63;1.90;;;;;;;;;;5051827;28;20025;-58
2021/01/03 08:38:39;;;;;;;4.10;2.07;;;;;;;;;;5052631;28;20052;-58
2021/01/03 08:41:07;;;;;;;4.00;2.07;;;;;;;;;;5052494;28;20029;-58
2021/01/03 08:43:34;;;;;;;3.73;2.00;;;;;;;;;;5052420;28;20057;-58
2021/01/03 08:46:03;;;;;;;8.77;3.53;;;;;;;;;;5052717;28;20040;-58
2021/01/03 08:48:30;;;;;;;3.83;1.70;;;;;;;;;;5052473;28;20029;-58
2021/01/03 08:51:09;;;;;;;4.53;2.20;;;;;;;;;;5052601;28;20025;-58
2021/01/03 08:53:36;;;;;;;4.40;1.87;;;;;;;;;;5052350;28;20040;-58
2021/01/03 08:56:23;;;;;;;3.90;2.43;;;;;;;;;;5052503;28;20025;-58
2021/01/03 08:58:49;;;;;;;4.53;2.30;;;;;;;;;;5052308;28;20648;-58
2021/01/03 09:01:24;;;;;;;4.10;2.30;;;;;;;;;;5052447;28;20029;-58
2021/01/03 09:03:52;;;;;;;4.05;2.38;;;;;;;;;;5052327;28;20293;-58
2021/01/03 09:06:19;;;;;;;5.37;3.20;;;;;;;;;;5052251;28;20030;-58
2021/01/03 09:08:46;;;;;;;5.40;2.23;;;;;;;;;;5052232;28;20598;-57
2021/01/03 09:11:13;;;;;;;3.83;2.00;;;;;;;;;;5052102;28;20100;-58
2021/01/03 09:14:03;;;;;;;3.93;1.80;;;;;;;;;;5052168;28;20336;-58
2021/01/03 09:16:29;;;;;;;4.73;2.00;;;;;;;;;;5044537;28;20316;-57
2021/01/03 09:19:02;;;;;;;3.50;1.77;;;;;;;;;;5052151;28;20087;-58
2021/01/03 09:21:29;;;;;;;3.93;2.33;;;;;;;;;;5052490;28;20460;-57
2021/01/03 09:24:06;;;;;;;3.03;1.97;;;;;;;;;;5052094;28;20033;-57
2021/01/03 09:26:34;;;;;;;5.83;2.40;;;;;;;;;;5051975;28;20250;-58
2021/01/03 09:29:12;;;;;;;5.03;2.17;;;;;;;;;;5052221;28;20680;-58
2021/01/03 09:31:39;;;;;;;3.70;2.00;;;;;;;;;;5051968;28;20357;-57
2021/01/03 09:34:11;;;;;;;4.33;2.40;;;;;;;;;;5052043;28;20298;-58
2021/01/03 09:36:47;;;;;;;4.63;2.20;;;;;;;;;;5051140;28;20281;-57
2021/01/03 09:39:16;;;;;;;2.87;1.80;;;;;;;;;;5052669;28;20648;-57
2021/01/03 09:42:05;;;;;;;3.93;2.30;;;;;;;;;;5055615;28;20721;-58
2021/01/03 09:44:37;;;;;;;3.57;1.97;;;;;;;;;;5055557;28;20254;-57
2021/01/03 09:47:06;;;;;;;4.33;2.20;;;;;;;;;;5055546;28;20680;-57
2021/01/03 09:49:44;;;;;;;4.17;2.17;;;;;;;;;;5055623;28;20258;-57
2021/01/03 09:52:34;;;;;;;3.47;2.07;;;;;;;;;;5055295;28;20348;-58
2021/01/03 09:55:03;;;;;;;3.33;1.80;;;;;;;;;;5055185;28;20372;-57
2021/01/03 09:57:33;;;;;;;4.27;2.47;;;;;;;;;;5055373;28;20794;-58
2021/01/03 10:00:00;;;;;;;4.30;2.10;;;;;;;;;;5055160;28;20735;-57
2021/01/03 10:02:27;;;;;;;5.17;2.00;;;;;;;;;;5055571;28;20647;-57
2021/01/03 10:04:54;;;;;;;3.50;2.00;;;;;;;;;;5054984;28;20285;-57
2021/01/03 10:07:23;;;;;;;3.30;2.07;;;;;;;;;;5054956;28;20734;-57
2021/01/03 10:09:55;;;;;;;3.57;1.80;;;;;;;;;;5054887;28;20258;-57
2021/01/03 10:12:28;;;;;;;5.83;2.00;;;;;;;;;;5055029;28;20345;-57
2021/01/03 10:15:02;;;;;;;3.50;2.10;;;;;;;;;;5054828;28;20347;-57
2021/01/03 10:17:29;;;;;;;3.97;2.08;;;;;;;;;;5054825;28;20344;-57
2021/01/03 10:19:56;;;;;;;3.40;1.90;;;;;;;;;;5054750;28;20029;-57
2021/01/03 10:22:32;;;;;;;6.67;2.10;;;;;;;;;;5036961;28;20290;-57
2021/01/03 10:25:00;;;;;;;2.83;1.67;;;;;;;;;;5054673;28;20258;-57
2021/01/03 10:27:27;;;;;;;3.83;2.20;;;;;;;;;;5054598;28;20246;-57
2021/01/03 10:29:54;;;;;;;5.57;2.00;;;;;;;;;;5054544;28;20288;-58
2021/01/03 10:32:21;;;;;;;5.23;2.00;;;;;;;;;;5054678;28;20260;-57
2021/01/03 10:34:47;;;;;;;4.00;2.13;;;;;;;;;;5054406;28;20286;-57
2021/01/03 10:37:14;;;;;;;4.87;2.30;;;;;;;;;;5053763;28;20705;-57
2021/01/03 10:39:41;;;;;;;4.17;2.10;;;;;;;;;;5054565;28;20724;-57
2021/01/03 10:42:09;;;;;;;4.07;2.57;;;;;;;;;;5054498;28;20324;-57
2021/01/03 10:44:36;;;;;;;3.93;2.03;;;;;;;;;;5054290;28;20258;-57
2021/01/03 10:47:02;;;;;;;6.03;1.90;;;;;;;;;;5054299;28;20250;-57
2021/01/03 10:49:29;;;;;;;3.83;2.03;;;;;;;;;;5054224;28;20307;-57
2021/01/03 10:51:56;;;;;;;3.07;1.83;;;;;;;;;;5053961;28;20262;-57
2021/01/03 10:54:25;;;;;;;4.23;2.20;;;;;;;;;;5054042;28;20400;-57
2021/01/03 10:56:52;;;;;;;3.60;1.90;;;;;;;;;;5054086;28;20250;-57
2021/01/03 10:59:19;;;;;;;3.27;1.93;;;;;;;;;;5053997;28;20265;-57
2021/01/03 11:01:47;;;;;;;3.33;2.17;;;;;;;;;;5054008;28;20250;-57
2021/01/03 11:04:14;;;;;;;3.30;1.90;;;;;;;;;;5053918;28;20304;-57
2021/01/03 11:06:41;;;;;;;5.00;2.40;;;;;;;;;;5053923;28;20313;-57
2021/01/03 11:09:10;;;;;;;5.33;2.10;;;;;;;;;;5053996;28;20289;-57
2021/01/03 11:11:36;;;;;;;4.13;2.13;;;;;;;;;;5053773;28;20258;-57
2021/01/03 11:14:03;;;;;;;3.90;2.20;;;;;;;;;;5053647;28;20282;-57
2021/01/03 11:16:31;;;;;;;3.77;2.20;;;;;;;;;;5053673;28;20601;-57
2021/01/03 11:18:58;;;;;;;3.30;1.90;;;;;;;;;;5053733;28;20254;-57
2021/01/03 11:21:24;;;;;;;3.10;2.00;;;;;;;;;;5053584;28;20337;-57
2021/01/03 11:23:51;;;;;;;3.00;1.77;;;;;;;;;;5053496;28;20281;-57
2021/01/03 11:26:25;;;;;;;2.13;1.33;;;;;;;;;;5053429;28;20258;-57
2021/01/03 11:28:52;;;;;;;3.93;2.00;;;;;;;;;;5053466;28;20299;-57
2021/01/03 11:31:19;;;;;;;3.10;2.23;;;;;;;;;;5053568;28;20265;-57
2021/01/03 11:33:45;;;;;;;3.60;1.97;;;;;;;;;;5053383;28;20282;-57
2021/01/03 11:36:17;;;;;;;7.73;1.77;;;;;;;;;;5052641;28;20250;-58
2021/01/03 11:38:44;;;;;;;3.20;1.97;;;;;;;;;;5053286;28;20288;-57
2021/01/03 11:41:12;;;;;;;3.90;1.97;;;;;;;;;;5053272;28;20250;-57
2021/01/03 11:43:39;;;;;;;3.57;1.93;;;;;;;;;;5053140;28;20254;-57
2021/01/03 11:46:06;;;;;;;4.33;2.03;;;;;;;;;;5053187;28;20598;-57
2021/01/03 11:48:33;;;;;;;3.13;1.60;;;;;;;;;;5053228;28;20740;-57
2021/01/03 11:51:00;;;;;;;5.47;2.27;;;;;;;;;;5053099;28;20254;-57
2021/01/03 11:53:26;;;;;;;2.73;1.80;;;;;;;;;;5053073;28;20289;-57
2021/01/03 11:55:53;;;;;;;4.10;2.30;;;;;;;;;;5053021;28;20341;-57
2021/01/03 11:58:20;;;;;;;5.93;2.57;;;;;;;;;;5053006;28;20259;-57
2021/01/03 12:00:47;;;;;;;3.60;2.00;;;;;;;;;;5052984;28;20467;-57
2021/01/03 12:03:14;;;;;;;4.17;2.40;;;;;;;;;;5052291;28;20254;-57
2021/01/03 12:05:40;;;;;;;4.47;2.00;;;;;;;;;;5053046;28;20337;-57
2021/01/03 12:08:07;;;;;;;4.07;2.30;;;;;;;;;;5052837;28;20266;-57
2021/01/03 12:10:34;;;;;;;3.37;1.83;;;;;;;;;;5052953;28;20312;-57
2021/01/03 12:13:01;;;;;;;7.70;2.07;;;;;;;;;;5052819;28;20262;-57
2021/01/03 12:15:27;;;;;;;7.33;2.53;;;;;;;;;;5052764;28;20262;-57
2021/01/03 12:17:54;;;;;;;7.43;2.30;;;;;;;;;;5052743;28;20246;-57
2021/01/03 12:20:21;;;;;;;3.30;2.03;;;;;;;;;;5052657;28;20262;-57
2021/01/03 12:22:50;;;;;;;3.67;2.10;;;;;;;;;;5052705;28;20250;-57
2021/01/03 12:25:18;;;;;;;7.90;2.17;;;;;;;;;;5052803;28;20262;-57
2021/01/03 12:27:45;;;;;;;3.73;1.80;;;;;;;;;;5052489;28;20253;-57
2021/01/03 12:30:13;;;;;;;2.63;1.50;;;;;;;;;;5052681;28;20294;-57
2021/01/03 12:32:39;;;;;;;3.57;1.87;;;;;;;;;;5052513;28;20250;-57
2021/01/03 12:35:08;;;;;;;3.90;2.20;;;;;;;;;;5052702;28;20322;-57
2021/01/03 12:37:37;;;;;;;3.50;1.90;;;;;;;;;;5051689;28;20289;-57
2021/01/03 12:40:05;;;;;;;4.00;2.10;;;;;;;;;;5052647;28;20262;-57
2021/01/03 12:42:32;;;;;;;4.20;2.10;;;;;;;;;;5052559;28;20304;-57
2021/01/03 12:44:59;;;;;;;4.23;2.30;;;;;;;;;;5052616;28;20262;-58
2021/01/03 12:47:25;;;;;;;4.53;2.03;;;;;;;;;;5052537;28;20265;-57
2021/01/03 12:49:59;;;;;;;6.73;2.00;;;;;;;;;;5052431;28;20257;-58
2021/01/03 12:52:25;;;;;;;4.57;2.17;;;;;;;;;;5052409;28;20253;-57
2021/01/03 12:54:52;;;;;;;3.67;1.67;;;;;;;;;;5052360;28;20281;-57
2021/01/03 12:57:19;;;;;;;4.50;2.17;;;;;;;;;;5052328;28;20613;-57
2021/01/03 12:59:46;;;;;;;6.13;2.17;;;;;;;;;;5034622;28;20273;-57
2021/01/03 13:02:12;;;;;;;4.37;2.10;;;;;;;;;;5052662;28;20258;-57
2021/01/03 13:04:41;;;;;;;3.93;2.33;;;;;;;;;;5052238;28;20273;-57
2021/01/03 13:07:07;;;;;;;5.00;2.63;;;;;;;;;;5052243;28;20258;-57
2021/01/03 13:09:34;;;;;;;3.67;2.17;;;;;;;;;;5052502;28;20717;-57
2021/01/03 13:12:01;;;;;;;4.23;2.40;;;;;;;;;;5052212;28;20258;-57
2021/01/03 13:14:28;;;;;;;3.00;1.80;;;;;;;;;;5055215;28;20301;-57
2021/01/03 13:16:55;;;;;;;6.30;2.67;;;;;;;;;;5056129;28;20258;-57
2021/01/03 13:19:22;;;;;;;4.60;2.40;;;;;;;;;;5056158;28;20246;-57
2021/01/03 13:21:51;;;;;;;6.83;2.30;;;;;;;;;;5056138;28;20593;-57
2021/01/03 13:24:20;;;;;;;6.73;2.60;;;;;;;;;;5055785;28;20261;-57
2021/01/03 13:26:48;;;;;;;7.13;2.90;;;;;;;;;;5055658;28;20257;-57
2021/01/03 13:29:15;;;;;;;6.50;2.57;;;;;;;;;;5055688;28;20257;-57
2021/01/03 13:31:42;;;;;;;3.83;2.37;;;;;;;;;;5055730;28;20254;-57
2021/01/03 13:34:09;;;;;;;5.00;3.00;;;;;;;;;;5055538;28;20289;-57
2021/01/03 13:36:41;;;;;;;4.33;2.30;;;;;;;;;;5054731;28;20278;-58
2021/01/03 13:39:08;;;;;;;7.33;2.60;;;;;;;;;;5055607;28;20660;-57
2021/01/03 13:41:34;;;;;;;4.13;2.40;;;;;;;;;;5055651;28;20315;-57
2021/01/03 13:44:01;;;;;;;4.50;2.60;;;;;;;;;;5055494;28;20242;-57
2021/01/03 13:46:28;;;;;;;7.10;3.10;;;;;;;;;;5055565;28;20285;-57
2021/01/03 13:48:55;;;;;;;5.63;3.10;;;;;;;;;;5055534;28;20250;-57
2021/01/03 13:51:22;;;;;;;7.47;3.50;;;;;;;;;;5055561;28;20407;-57
2021/01/03 13:53:49;;;;;;;7.27;3.10;;;;;;;;;;5055218;28;20281;-57
2021/01/03 13:56:15;;;;;;;6.80;3.07;;;;;;;;;;5055319;28;20270;-57
2021/01/03 13:58:42;;;;;;;5.30;2.70;;;;;;;;;;5055145;28;20255;-57
2021/01/03 14:01:09;;;;;;;5.30;2.43;;;;;;;;;;5055268;28;20270;-57
2021/01/03 14:03:36;;;;;;;4.93;2.57;;;;;;;;;;5055090;28;20605;-57
2021/01/03 14:06:03;;;;;;;4.17;2.30;;;;;;;;;;5055083;28;20312;-57
2021/01/03 14:08:30;;;;;;;4.50;2.40;;;;;;;;;;5054998;28;20272;-58
2021/01/03 14:10:56;;;;;;;3.87;2.20;;;;;;;;;;5055090;28;20266;-57
2021/01/03 14:13:23;;;;;;;6.10;2.33;;;;;;;;;;5054975;28;20278;-58
2021/01/03 14:15:50;;;;;;;3.90;2.07;;;;;;;;;;5055039;28;20324;-58
2021/01/03 14:18:17;;;;;;;5.67;2.87;;;;;;;;;;5055008;28;20246;-58
2021/01/03 14:20:44;;;;;;;6.93;2.40;;;;;;;;;;5054831;28;20263;-58
2021/01/03 14:23:10;;;;;;;4.33;2.30;;;;;;;;;;5054910;28;20241;-58
2021/01/03 14:25:37;;;;;;;5.57;1.77;;;;;;;;;;5054074;28;20650;-58
2021/01/03 14:28:04;;;;;;;2.20;1.17;;;;;;;;;;5054570;28;20056;-58
2021/01/03 14:30:31;;;;;;;2.20;1.30;;;;;;;;;;5054595;28;20495;-58
2021/01/03 14:33:04;;;;;;;2.00;1.10;;;;;;;;;;5054773;28;20056;-58
2021/01/03 14:35:32;;;;;;;2.13;1.17;;;;;;;;;;5054463;28;20072;-58
2021/01/03 14:38:00;;;;;;;2.20;1.10;;;;;;;;;;5053604;28;20482;-58
2021/01/03 14:40:29;;;;;;;2.93;1.30;;;;;;;;;;5054421;28;20034;-58
2021/01/03 14:43:08;;;;;;;1.60;0.90;;;;;;;;;;5054321;28;20044;-58
2021/01/03 14:45:42;;;;;;;1.33;0.90;;;;;;;;;;5054492;28;20383;-58
2021/01/03 14:48:14;;;;;;;1.77;1.03;;;;;;;;;;5054240;28;20048;-58
2021/01/03 14:50:44;;;;;;;2.83;1.07;;;;;;;;;;5054551;28;20089;-58
2021/01/03 14:53:13;;;;;;;2.00;1.10;;;;;;;;;;5054155;28;20021;-58
2021/01/03 14:55:46;;;;;;;1.63;1.00;;;;;;;;;;5054139;28;20040;-58
2021/01/03 14:58:17;;;;;;;2.63;1.50;;;;;;;;;;5054245;28;20052;-58